createdAt,value
2023-11-03T00:00:10.101Z,10.41
2023-11-03T00:02:36.964Z,10.34
2023-11-03T00:05:06.103Z,10.27
2023-11-03T00:07:33.603Z,10.21
2023-11-03T00:10:01.446Z,10.15
2023-11-03T00:12:28.157Z,10.13
2023-11-03T00:14:54.717Z,10.07
2023-11-03T00:17:21.296Z,10.03
2023-11-03T00:19:48.149Z,10.01
2023-11-03T00:22:14.956Z,9.98
2023-11-03T00:24:42.123Z,9.95
2023-11-03T00:27:09.255Z,9.93
2023-11-03T00:29:35.980Z,9.90
2023-11-03T00:32:03.878Z,9.87
2023-11-03T00:34:30.684Z,9.86
2023-11-03T00:36:57.668Z,9.84
2023-11-03T00:39:24.229Z,9.82
2023-11-03T00:41:52.547Z,9.77
2023-11-03T00:44:20.060Z,9.77
2023-11-03T00:46:47.581Z,9.77
2023-11-03T00:49:14.818Z,9.79
2023-11-03T00:51:41.661Z,9.80
2023-11-03T00:54:10.588Z,9.83
2023-11-03T00:56:38.042Z,9.83
2023-11-03T00:59:04.930Z,9.80
2023-11-03T01:01:32.734Z,9.77
2023-11-03T01:03:59.393Z,9.82
2023-11-03T01:06:26.037Z,9.79
2023-11-03T01:08:52.675Z,9.72
2023-11-03T01:11:20.870Z,9.70
2023-11-03T01:13:47.492Z,9.70
2023-11-03T01:16:14.610Z,9.72
2023-11-03T01:18:42.091Z,9.70
2023-11-03T01:21:16.318Z,9.66
2023-11-03T01:23:44.234Z,9.59
2023-11-03T01:26:11.804Z,9.59
2023-11-03T01:28:38.787Z,9.55
2023-11-03T01:31:05.977Z,9.53
2023-11-03T01:33:33.215Z,9.60
2023-11-03T01:35:59.907Z,9.56
2023-11-03T01:38:26.477Z,9.55
2023-11-03T01:40:54.609Z,9.50
2023-11-03T01:43:21.651Z,9.46
2023-11-03T01:45:48.222Z,9.56
2023-11-03T01:48:15.052Z,9.52
2023-11-03T01:50:43.369Z,9.46
2023-11-03T01:53:11.477Z,9.39
2023-11-03T01:55:38.125Z,9.35
2023-11-03T01:58:05.275Z,9.36
2023-11-03T02:00:32.167Z,9.29
2023-11-03T02:02:58.796Z,9.26
2023-11-03T02:05:25.575Z,9.19
2023-11-03T02:07:52.262Z,9.12
2023-11-03T02:10:18.808Z,9.10
2023-11-03T02:12:45.527Z,9.02
2023-11-03T02:15:12.188Z,8.98
2023-11-03T02:17:40.366Z,8.91
2023-11-03T02:20:08.971Z,8.83
2023-11-03T02:22:35.844Z,8.81
2023-11-03T02:25:03.102Z,8.74
2023-11-03T02:27:29.941Z,8.70
2023-11-03T02:29:57.173Z,8.68
2023-11-03T02:32:24.041Z,8.65
2023-11-03T02:34:50.968Z,8.61
2023-11-03T02:37:17.580Z,8.59
2023-11-03T02:39:48.594Z,8.56
2023-11-03T02:42:17.035Z,8.53
2023-11-03T02:44:43.759Z,8.46
2023-11-03T02:47:10.310Z,8.46
2023-11-03T02:49:37.537Z,8.46
2023-11-03T02:52:04.527Z,8.50
2023-11-03T02:54:31.135Z,8.46
2023-11-03T02:56:57.733Z,8.43
2023-11-03T02:59:24.478Z,8.42
2023-11-03T03:01:51.139Z,8.39
2023-11-03T03:04:17.996Z,8.34
2023-11-03T03:06:46.882Z,8.32
2023-11-03T03:09:14.213Z,8.32
2023-11-03T03:11:41.496Z,8.29
2023-11-03T03:14:08.298Z,8.29
2023-11-03T03:16:34.892Z,8.28
2023-11-03T03:19:01.505Z,8.23
2023-11-03T03:21:28.076Z,8.23
2023-11-03T03:23:54.706Z,8.22
2023-11-03T03:26:21.315Z,8.16
2023-11-03T03:28:47.991Z,8.15
2023-11-03T03:31:14.685Z,8.12
2023-11-03T03:33:41.495Z,8.09
2023-11-03T03:36:09.274Z,8.06
2023-11-03T03:38:36.726Z,8.05
2023-11-03T03:41:03.406Z,8.01
2023-11-03T03:43:29.962Z,8.03
2023-11-03T03:45:56.567Z,8.06
2023-11-03T03:48:23.326Z,7.99
2023-11-03T03:50:49.869Z,8.02
2023-11-03T03:53:16.428Z,7.96
2023-11-03T03:55:43.179Z,7.95
2023-11-03T03:58:09.773Z,7.92
2023-11-03T04:00:36.508Z,7.89
2023-11-03T04:03:03.147Z,7.89
2023-11-03T04:05:29.722Z,7.92
2023-11-03T04:07:56.350Z,7.92
2023-11-03T04:10:22.948Z,7.89
2023-11-03T04:12:49.613Z,7.89
2023-11-03T04:15:16.203Z,8.03
2023-11-03T04:17:42.807Z,7.99
2023-11-03T04:20:09.831Z,7.94
2023-11-03T04:22:37.265Z,7.92
2023-11-03T04:25:04.237Z,7.91
2023-11-03T04:27:30.775Z,7.92
2023-11-03T04:29:57.332Z,7.91
2023-11-03T04:32:24.119Z,7.89
2023-11-03T04:34:50.822Z,7.92
2023-11-03T04:37:17.413Z,7.92
2023-11-03T04:39:43.953Z,7.98
2023-11-03T04:42:10.528Z,7.99
2023-11-03T04:44:37.186Z,8.05
2023-11-03T04:47:03.875Z,8.07
2023-11-03T04:49:31.655Z,8.05
2023-11-03T04:51:58.441Z,8.09
2023-11-03T04:54:25.098Z,8.12
2023-11-03T04:56:51.693Z,8.13
2023-11-03T04:59:18.459Z,8.13
2023-11-03T05:01:45.786Z,8.05
2023-11-03T05:04:12.325Z,8.02
2023-11-03T05:06:39.004Z,8.03
2023-11-03T05:09:07.462Z,8.07
2023-11-03T05:11:34.052Z,8.15
2023-11-03T05:14:00.673Z,8.15
2023-11-03T05:16:27.265Z,8.10
2023-11-03T05:18:53.797Z,8.19
2023-11-03T05:21:20.419Z,8.13
2023-11-03T05:23:47.031Z,8.07
2023-11-03T05:26:14.646Z,8.03
2023-11-03T05:28:42.170Z,8.01
2023-11-03T05:31:08.951Z,7.98
2023-11-03T05:33:35.699Z,7.94
2023-11-03T05:36:02.373Z,7.91
2023-11-03T05:38:29.000Z,7.96
2023-11-03T05:40:55.531Z,7.98
2023-11-03T05:43:22.312Z,8.09
2023-11-03T05:45:49.019Z,8.07
2023-11-03T05:48:15.673Z,8.10
2023-11-03T05:50:42.397Z,8.30
2023-11-03T05:53:09.289Z,8.28
2023-11-03T05:55:35.834Z,8.16
2023-11-03T05:58:02.540Z,8.13
2023-11-03T06:00:30.619Z,8.21
2023-11-03T06:02:57.643Z,8.17
2023-11-03T06:05:24.288Z,8.09
2023-11-03T06:07:50.789Z,8.01
2023-11-03T06:10:17.431Z,7.99
2023-11-03T06:12:44.064Z,8.05
2023-11-03T06:15:10.779Z,7.96
2023-11-03T06:17:37.358Z,7.91
2023-11-03T06:20:04.560Z,7.89
2023-11-03T06:22:31.198Z,7.85
2023-11-03T06:24:57.851Z,7.84
2023-11-03T06:27:24.507Z,7.81
2023-11-03T06:29:51.149Z,7.74
2023-11-03T06:32:17.754Z,7.67
2023-11-03T06:34:44.848Z,7.58
2023-11-03T06:37:11.537Z,7.57
2023-11-03T06:39:38.604Z,7.51
2023-11-03T06:42:08.990Z,7.51
2023-11-03T06:44:36.273Z,7.43
2023-11-03T06:47:04.350Z,7.43
2023-11-03T06:49:30.993Z,7.43
2023-11-03T06:51:57.624Z,7.43
2023-11-03T06:54:24.859Z,7.46
2023-11-03T06:56:51.647Z,7.50
2023-11-03T06:59:18.204Z,7.55
2023-11-03T07:01:44.690Z,7.54
2023-11-03T07:04:11.257Z,7.54
2023-11-03T07:06:37.868Z,7.55
2023-11-03T07:09:05.896Z,7.57
2023-11-03T07:11:32.538Z,7.55
2023-11-03T07:13:59.976Z,7.57
2023-11-03T07:16:26.566Z,7.57
2023-11-03T07:18:53.546Z,7.58
2023-11-03T07:21:20.160Z,7.55
2023-11-03T07:23:47.394Z,7.58
2023-11-03T07:26:14.789Z,7.60
2023-11-03T07:28:43.773Z,7.58
2023-11-03T07:31:12.763Z,7.58
2023-11-03T07:33:41.336Z,7.60
2023-11-03T07:36:11.484Z,7.64
2023-11-03T07:38:38.448Z,7.67
2023-11-03T07:41:06.376Z,7.65
2023-11-03T07:43:32.906Z,7.70
2023-11-03T07:45:59.720Z,7.70
2023-11-03T07:48:26.501Z,7.71
2023-11-03T07:50:53.716Z,7.77
2023-11-03T07:53:20.303Z,7.82
2023-11-03T07:55:46.989Z,7.85
2023-11-03T07:58:14.977Z,7.88
2023-11-03T08:00:41.571Z,7.89
2023-11-03T08:03:08.876Z,7.96
2023-11-03T08:05:35.822Z,8.01
2023-11-03T08:08:03.134Z,8.10
2023-11-03T08:10:30.349Z,8.23
2023-11-03T08:12:58.518Z,8.34
2023-11-03T08:15:25.213Z,8.43
2023-11-03T08:17:51.894Z,8.46
2023-11-03T08:20:19.987Z,8.53
2023-11-03T08:22:49.378Z,8.63
2023-11-03T08:25:16.580Z,8.70
2023-11-03T08:27:43.193Z,8.73
2023-11-03T08:30:09.980Z,8.75
2023-11-03T08:32:37.413Z,8.71
2023-11-03T08:35:06.616Z,8.77
2023-11-03T08:37:34.113Z,8.78
2023-11-03T08:40:01.598Z,8.88
2023-11-03T08:42:28.479Z,8.92
2023-11-03T08:44:55.135Z,8.98
2023-11-03T08:47:21.869Z,9.01
2023-11-03T08:49:48.545Z,9.14
2023-11-03T08:52:15.136Z,9.28
2023-11-03T08:54:41.940Z,9.25
2023-11-03T08:57:09.764Z,9.38
2023-11-03T08:59:37.845Z,9.49
2023-11-03T09:02:05.362Z,9.49
2023-11-03T09:04:31.892Z,9.60
2023-11-03T09:06:58.479Z,9.69
2023-11-03T09:09:25.780Z,9.76
2023-11-03T09:11:52.531Z,9.94
2023-11-03T09:14:19.107Z,10.04
2023-11-03T09:16:45.657Z,9.98
2023-11-03T09:19:12.897Z,9.97
2023-11-03T09:21:39.684Z,10.00
2023-11-03T09:24:07.072Z,9.95
2023-11-03T09:26:34.336Z,10.03
2023-11-03T09:29:02.158Z,10.17
2023-11-03T09:31:29.552Z,10.18
2023-11-03T09:33:56.861Z,10.41
2023-11-03T09:36:23.793Z,10.65
2023-11-03T09:38:50.316Z,10.56
2023-11-03T09:41:17.111Z,10.63
2023-11-03T09:43:46.375Z,10.88
2023-11-03T09:46:13.959Z,11.19
2023-11-03T09:48:42.345Z,11.41
2023-11-03T09:51:09.627Z,11.57
2023-11-03T09:53:37.754Z,11.54
2023-11-03T09:56:06.434Z,11.47
2023-11-03T09:58:36.293Z,11.30
2023-11-03T10:01:05.838Z,10.88
2023-11-03T10:03:34.406Z,11.06
2023-11-03T10:06:04.213Z,10.62
2023-11-03T10:08:30.835Z,10.72
2023-11-03T10:10:58.851Z,10.65
2023-11-03T10:13:26.279Z,10.59
2023-11-03T10:15:52.898Z,10.66
2023-11-03T10:18:19.586Z,10.79
2023-11-03T10:20:47.517Z,10.89
2023-11-03T10:23:14.815Z,10.95
2023-11-03T10:25:41.460Z,10.73
2023-11-03T10:28:08.960Z,10.72
2023-11-03T10:30:37.050Z,10.88
2023-11-03T10:33:04.474Z,10.89
2023-11-03T10:35:31.938Z,11.07
2023-11-03T10:37:58.633Z,10.99
2023-11-03T10:40:25.971Z,11.09
2023-11-03T10:42:54.533Z,11.23
2023-11-03T10:45:22.375Z,10.91
2023-11-03T10:48:12.702Z,10.99
2023-11-03T10:50:49.491Z,11.16
2023-11-03T10:53:30.867Z,11.22
2023-11-03T10:56:22.312Z,11.00
2023-11-03T10:58:53.202Z,10.95
2023-11-03T11:01:30.355Z,10.91
2023-11-03T11:04:26.793Z,10.83
2023-11-03T11:07:04.899Z,10.91
2023-11-03T11:09:44.028Z,10.88
2023-11-03T11:12:11.532Z,10.85
2023-11-03T11:14:39.567Z,10.86
2023-11-03T11:17:24.523Z,10.91
2023-11-03T11:19:57.114Z,10.97
2023-11-03T11:22:27.979Z,10.89
2023-11-03T11:24:57.773Z,11.04
2023-11-03T11:27:26.049Z,11.10
2023-11-03T11:30:13.185Z,11.19
2023-11-03T11:32:39.841Z,11.02
2023-11-03T11:35:09.873Z,11.19
2023-11-03T11:37:37.238Z,11.13
2023-11-03T11:40:07.313Z,11.17
2023-11-03T11:42:39.129Z,11.20
2023-11-03T11:45:10.130Z,11.16
2023-11-03T11:47:38.837Z,11.04
2023-11-03T11:50:06.618Z,11.20
2023-11-03T11:52:36.963Z,11.17
2023-11-03T11:55:05.631Z,11.14
2023-11-03T11:57:33.707Z,11.12
2023-11-03T12:00:00.816Z,11.03
2023-11-03T12:02:27.465Z,11.16
2023-11-03T12:04:56.758Z,11.23
2023-11-03T12:07:26.268Z,11.34
2023-11-03T12:09:55.271Z,11.37
2023-11-03T12:12:22.796Z,11.28
2023-11-03T12:14:49.513Z,11.07
2023-11-03T12:17:17.557Z,10.99
2023-11-03T12:19:47.605Z,11.20
2023-11-03T12:22:21.244Z,11.26
2023-11-03T12:24:49.367Z,11.33
2023-11-03T12:27:17.965Z,11.03
2023-11-03T12:29:45.985Z,11.14
2023-11-03T12:32:13.672Z,11.22
2023-11-03T12:34:42.380Z,11.33
2023-11-03T12:37:10.426Z,11.38
2023-11-03T12:39:55.958Z,11.51
2023-11-03T12:42:27.462Z,11.45
2023-11-03T12:45:02.064Z,11.20
2023-11-03T12:47:46.249Z,11.22
2023-11-03T12:50:23.387Z,11.33
2023-11-03T12:53:04.399Z,11.47
2023-11-03T12:55:35.778Z,11.34
2023-11-03T12:58:09.915Z,11.61
2023-11-03T13:00:37.997Z,11.74
2023-11-03T13:03:05.367Z,11.99
2023-11-03T13:05:32.979Z,12.19
2023-11-03T13:08:02.144Z,12.02
2023-11-03T13:10:32.172Z,12.15
2023-11-03T13:12:59.104Z,12.12
2023-11-03T13:15:27.821Z,12.42
2023-11-03T13:17:54.590Z,12.54
2023-11-03T13:20:21.877Z,12.47
2023-11-03T13:22:50.732Z,12.34
2023-11-03T13:25:18.437Z,12.43
2023-11-03T13:27:45.358Z,12.36
2023-11-03T13:30:12.770Z,12.28
2023-11-03T13:32:42.779Z,12.28
2023-11-03T13:35:11.144Z,12.57
2023-11-03T13:37:41.920Z,12.40
2023-11-03T13:40:09.947Z,12.63
2023-11-03T13:42:36.985Z,12.74
2023-11-03T13:45:04.696Z,12.57
2023-11-03T13:47:31.759Z,12.56
2023-11-03T13:50:07.875Z,12.52
2023-11-03T13:52:41.814Z,12.39
2023-11-03T13:55:09.926Z,12.39
2023-11-03T13:57:37.312Z,12.09
2023-11-03T14:00:07.500Z,12.18
2023-11-03T14:02:34.112Z,12.34
2023-11-03T14:05:00.750Z,12.47
2023-11-03T14:07:27.325Z,12.65
2023-11-03T14:09:53.889Z,12.52
2023-11-03T14:12:22.159Z,12.39
2023-11-03T14:14:49.832Z,11.95
2023-11-03T14:17:16.497Z,11.78
2023-11-03T14:19:43.197Z,11.71
2023-11-03T14:22:10.987Z,11.54
2023-11-03T14:24:38.012Z,11.47
2023-11-03T14:27:06.682Z,11.41
2023-11-03T14:29:34.289Z,11.20
2023-11-03T14:32:01.293Z,11.19
2023-11-03T14:34:28.738Z,11.13
2023-11-03T14:36:55.521Z,11.00
2023-11-03T14:39:24.122Z,10.88
2023-11-03T14:41:50.669Z,10.77
2023-11-03T14:44:17.486Z,10.65
2023-11-03T14:46:50.345Z,10.56
2023-11-03T14:49:19.596Z,10.49
2023-11-03T14:51:46.949Z,10.42
2023-11-03T14:54:15.991Z,10.35
2023-11-03T14:56:44.844Z,10.27
2023-11-03T14:59:11.496Z,10.20
2023-11-03T15:01:38.862Z,10.17
2023-11-03T15:04:06.302Z,10.14
2023-11-03T15:06:33.952Z,10.10
2023-11-03T15:09:00.820Z,10.07
2023-11-03T15:11:27.792Z,10.05
2023-11-03T15:14:00.282Z,10.00
2023-11-03T15:16:30.481Z,10.00
2023-11-03T15:18:58.184Z,9.91
2023-11-03T15:21:24.859Z,9.87
2023-11-03T15:23:51.351Z,9.82
2023-11-03T15:26:18.827Z,9.74
2023-11-03T15:28:45.404Z,9.70
2023-11-03T15:31:12.088Z,9.64
2023-11-03T15:33:38.691Z,9.63
2023-11-03T15:36:07.416Z,9.60
2023-11-03T15:38:34.762Z,9.59
2023-11-03T15:41:01.996Z,9.56
2023-11-03T15:43:29.043Z,9.57
2023-11-03T15:45:55.790Z,9.56
2023-11-03T15:48:22.691Z,9.53
2023-11-03T15:50:51.255Z,9.53
2023-11-03T15:53:18.037Z,9.50
2023-11-03T15:55:49.257Z,9.47
2023-11-03T15:58:21.375Z,9.46
2023-11-03T16:00:55.310Z,9.43
2023-11-03T16:03:23.184Z,9.42
2023-11-03T16:05:51.021Z,9.38
2023-11-03T16:08:18.039Z,9.38
2023-11-03T16:10:45.555Z,9.35
2023-11-03T16:13:13.800Z,9.33
2023-11-03T16:15:41.729Z,9.33
2023-11-03T16:18:09.415Z,9.33
2023-11-03T16:20:36.985Z,9.31
2023-11-03T16:23:03.522Z,9.31
2023-11-03T16:25:30.130Z,9.29
2023-11-03T16:27:57.267Z,9.28
2023-11-03T16:30:23.978Z,9.26
2023-11-03T16:32:50.750Z,9.26
2023-11-03T16:35:17.555Z,9.24
2023-11-03T16:37:44.497Z,9.21
2023-11-03T16:40:12.460Z,9.19
2023-11-03T16:42:39.597Z,9.19
2023-11-03T16:45:10.526Z,9.15
2023-11-03T16:47:37.145Z,9.12
2023-11-03T16:50:05.157Z,9.12
2023-11-03T16:52:36.162Z,9.11
2023-11-03T16:55:03.067Z,9.08
2023-11-03T16:57:30.786Z,9.11
2023-11-03T16:59:57.345Z,9.08
2023-11-03T17:02:23.892Z,9.07
2023-11-03T17:04:51.253Z,9.10
2023-11-03T17:07:17.998Z,9.07
2023-11-03T17:09:44.579Z,9.08
2023-11-03T17:12:11.154Z,9.05
2023-11-03T17:14:37.786Z,9.07
2023-11-03T17:17:04.517Z,9.04
2023-11-03T17:19:31.568Z,9.02
2023-11-03T17:21:58.146Z,9.01
2023-11-03T17:24:24.744Z,9.00
2023-11-03T17:26:51.870Z,8.98
2023-11-03T17:29:19.586Z,9.01
2023-11-03T17:31:46.333Z,9.00
2023-11-03T17:34:12.906Z,8.98
2023-11-03T17:36:39.748Z,9.00
2023-11-03T17:39:10.209Z,9.00
2023-11-03T17:41:37.471Z,9.00
2023-11-03T17:44:04.269Z,9.00
2023-11-03T17:46:31.348Z,8.98
2023-11-03T17:48:57.908Z,8.98
2023-11-03T17:51:24.495Z,9.01
2023-11-03T17:53:51.082Z,8.98
2023-11-03T17:56:18.076Z,8.98
2023-11-03T17:58:45.562Z,8.95
2023-11-03T18:01:12.756Z,8.95
2023-11-03T18:03:39.495Z,8.94
2023-11-03T18:06:06.317Z,8.92
2023-11-03T18:08:33.114Z,8.91
2023-11-03T18:11:00.835Z,8.91
2023-11-03T18:13:27.460Z,8.91
2023-11-03T18:15:54.097Z,8.92
2023-11-03T18:18:22.274Z,8.92
2023-11-03T18:20:50.139Z,8.92
2023-11-03T18:23:16.924Z,8.92
2023-11-03T18:25:43.872Z,8.95
2023-11-03T18:28:12.388Z,8.97
2023-11-03T18:30:39.392Z,9.00
2023-11-03T18:33:06.524Z,8.98
2023-11-03T18:35:33.451Z,8.98
2023-11-03T18:38:00.561Z,9.00
2023-11-03T18:40:30.256Z,8.98
2023-11-03T18:42:58.125Z,8.98
2023-11-03T18:45:26.934Z,8.98
2023-11-03T18:47:53.977Z,9.01
2023-11-03T18:52:52.830Z,9.00
2023-11-03T18:56:14.150Z,8.98
2023-11-03T18:58:47.498Z,9.01
2023-11-03T19:02:08.876Z,9.00
2023-11-03T19:08:42.011Z,8.97
2023-11-03T19:11:08.870Z,8.95
2023-11-03T19:13:37.015Z,8.95
2023-11-03T19:16:03.921Z,8.94
2023-11-03T19:18:36.934Z,8.97
2023-11-03T19:21:05.076Z,8.91
2023-11-03T19:23:32.545Z,8.94
2023-11-03T19:25:59.379Z,8.91
2023-11-03T19:28:25.902Z,8.97
2023-11-03T19:30:52.691Z,8.97
2023-11-03T19:33:19.375Z,8.98
2023-11-03T19:35:50.153Z,8.98
2023-11-03T19:38:21.375Z,9.00
2023-11-03T19:40:48.425Z,9.00
2023-11-03T19:43:14.951Z,9.10
2023-11-03T19:45:41.583Z,9.16
2023-11-03T19:48:12.393Z,9.21
2023-11-03T19:50:39.397Z,9.25
2023-11-03T19:53:05.972Z,9.24
2023-11-03T19:55:34.311Z,9.22
2023-11-03T19:58:00.921Z,9.24
2023-11-03T20:00:30.494Z,9.19
2023-11-03T20:02:57.642Z,9.18
2023-11-03T20:05:25.142Z,9.16
2023-11-03T20:07:52.653Z,9.19
2023-11-03T20:10:19.666Z,9.16
2023-11-03T20:12:46.389Z,9.16
2023-11-03T20:15:13.095Z,9.10
2023-11-03T20:17:41.191Z,9.08
2023-11-03T20:20:10.128Z,9.05
2023-11-03T20:22:36.804Z,9.04
2023-11-03T20:25:03.789Z,9.00
2023-11-03T20:27:32.138Z,8.92
2023-11-03T20:30:00.269Z,8.97
2023-11-03T20:32:26.858Z,8.95
2023-11-03T20:34:53.668Z,8.97
2023-11-03T20:37:20.247Z,8.94
2023-11-03T20:39:47.208Z,8.95
2023-11-03T20:42:15.226Z,8.92
2023-11-03T20:44:42.772Z,8.97
2023-11-03T20:47:09.445Z,8.97
2023-11-03T20:49:36.402Z,8.94
2023-11-03T20:52:03.126Z,8.95
2023-11-03T20:54:30.678Z,8.95
2023-11-03T20:56:57.248Z,8.91
2023-11-03T20:59:24.250Z,8.85
2023-11-03T21:01:52.008Z,8.85
2023-11-03T21:04:20.549Z,8.85
2023-11-03T21:06:48.397Z,8.84
2023-11-03T21:09:16.010Z,8.85
2023-11-03T21:11:42.894Z,8.84
2023-11-03T21:14:10.069Z,8.81
2023-11-03T21:16:36.640Z,8.80
2023-11-03T21:19:04.057Z,8.80
2023-11-03T21:21:32.051Z,8.81
2023-11-03T21:23:58.733Z,8.84
2023-11-03T21:26:26.428Z,8.83
2023-11-03T21:28:52.944Z,8.80
2023-11-03T21:31:19.563Z,8.83
2023-11-03T21:33:49.185Z,8.81
2023-11-03T21:36:26.112Z,8.78
2023-11-03T21:38:53.629Z,8.78
2023-11-03T21:41:20.534Z,8.73
2023-11-03T21:43:47.929Z,8.74
2023-11-03T21:46:25.261Z,8.74
2023-11-03T21:48:53.226Z,8.78
2023-11-03T21:51:20.700Z,8.81
2023-11-03T21:53:47.329Z,8.85
2023-11-03T21:56:13.945Z,8.88
2023-11-03T21:58:41.460Z,8.87
2023-11-03T22:01:11.675Z,8.88
2023-11-03T22:03:38.652Z,8.89
2023-11-03T22:06:06.308Z,8.95
2023-11-03T22:08:32.944Z,8.98
2023-11-03T22:11:00.970Z,9.01
2023-11-03T22:13:27.565Z,9.00
2023-11-03T22:15:54.170Z,9.02
2023-11-03T22:18:21.359Z,9.10
2023-11-03T22:20:48.178Z,9.10
2023-11-03T22:23:15.034Z,9.19
2023-11-03T22:25:41.639Z,9.15
2023-11-03T22:28:08.450Z,9.21
2023-11-03T22:30:37.926Z,9.21
2023-11-03T22:33:04.751Z,9.18
2023-11-03T22:35:31.306Z,9.26
2023-11-03T22:37:57.936Z,9.29
2023-11-03T22:40:24.545Z,9.31
2023-11-03T22:42:51.151Z,9.33
2023-11-03T22:45:17.889Z,9.38
2023-11-03T22:47:45.025Z,9.35
2023-11-03T22:50:14.447Z,9.31
2023-11-03T22:52:42.490Z,9.36
2023-11-03T22:55:12.208Z,9.35
2023-11-03T22:57:39.012Z,9.36
2023-11-03T23:00:12.471Z,9.32
2023-11-03T23:02:42.981Z,9.36
2023-11-03T23:05:09.902Z,9.39
2023-11-03T23:07:36.536Z,9.46
2023-11-03T23:10:03.535Z,9.46
2023-11-03T23:12:30.842Z,9.47
2023-11-03T23:14:57.687Z,9.46
2023-11-03T23:17:24.269Z,9.46
2023-11-03T23:19:50.813Z,9.45
2023-11-03T23:22:17.452Z,9.46
2023-11-03T23:24:44.163Z,9.43
2023-11-03T23:27:10.716Z,9.47
2023-11-03T23:29:37.482Z,9.45
2023-11-03T23:32:04.198Z,9.40
2023-11-03T23:34:30.914Z,9.40
2023-11-03T23:36:57.552Z,9.40
2023-11-03T23:39:24.090Z,9.47
2023-11-03T23:41:50.668Z,9.46
2023-11-03T23:44:17.231Z,9.46
2023-11-03T23:46:43.752Z,9.46
2023-11-03T23:49:10.434Z,9.45
2023-11-03T23:51:37.314Z,9.45
2023-11-03T23:54:04.064Z,9.43
2023-11-03T23:56:30.651Z,9.43
2023-11-03T23:58:57.142Z,9.42
